Time;durP1;ratioP1;P1;durP2;ratioP2;P2;SDS_P1;SDS_P2;PMS_P1;PMS_P2;Temp;Humidity;BMP_temperature;BMP_pressure;BME280_temperature;BME280_humidity;BME280_pressure;Samples;Min_cycle;Max_cycle;Signal;HPM_P1;HPM_P2
2024/02/27 00:01:54;;;;;;;4.85;3.00;;;6.80;83.70;;;;;;5031192;28;20037;-68
2024/02/27 00:04:20;;;;;;;8.50;3.70;;;6.80;83.70;;;;;;5032505;28;20032;-68
2024/02/27 00:06:49;;;;;;;4.57;3.10;;;6.70;83.80;;;;;;5032029;28;20480;-68
2024/02/27 00:09:18;;;;;;;5.88;3.35;;;6.70;83.80;;;;;;5033647;28;20484;-65
2024/02/27 00:11:45;;;;;;;5.10;2.45;;;6.70;83.80;;;;;;5029073;28;20028;-66
2024/02/27 00:14:11;;;;;;;6.03;3.33;;;6.70;83.80;;;;;;5029313;28;20029;-66
2024/02/27 00:16:37;;;;;;;6.05;3.95;;;6.60;83.90;;;;;;5022120;28;20069;-65
2024/02/27 00:19:03;;;;;;;5.55;3.45;;;6.60;83.90;;;;;;5027428;28;20120;-66
2024/02/27 00:21:29;;;;;;;6.72;3.33;;;6.60;84.00;;;;;;5029247;28;20048;-66
2024/02/27 00:23:56;;;;;;;7.63;3.70;;;6.60;84.00;;;;;;5029785;28;20036;-65
2024/02/27 00:26:22;;;;;;;6.65;3.83;;;6.70;84.00;;;;;;5025472;28;20254;-66
2024/02/27 00:28:48;;;;;;;7.85;3.70;;;6.60;83.90;;;;;;5026109;28;20120;-65
2024/02/27 00:31:15;;;;;;;8.32;3.88;;;6.60;84.00;;;;;;5026892;28;20052;-66
2024/02/27 00:33:41;;;;;;;7.82;4.20;;;6.60;84.10;;;;;;5025438;28;20041;-66
2024/02/27 00:36:08;;;;;;;8.07;3.88;;;6.60;84.00;;;;;;5028610;28;20033;-66
2024/02/27 00:38:34;;;;;;;10.77;4.95;;;6.60;84.00;;;;;;5021998;28;20025;-66
2024/02/27 00:41:05;;;;;;;6.43;3.58;;;6.70;84.10;;;;;;5030409;28;20120;-65
2024/02/27 00:43:31;;;;;;;5.82;2.95;;;6.70;84.00;;;;;;5010721;28;20531;-65
2024/02/27 00:45:57;;;;;;;4.07;3.20;;;6.70;84.00;;;;;;5031508;28;20489;-65
2024/02/27 00:48:23;;;;;;;8.77;4.13;;;6.70;83.90;;;;;;5023404;28;20664;-65
2024/02/27 00:50:49;;;;;;;5.03;3.53;;;6.70;83.90;;;;;;5028183;28;20038;-66
2024/02/27 00:53:16;;;;;;;8.82;4.18;;;6.60;83.90;;;;;;5029409;28;20017;-66
2024/02/27 00:55:42;;;;;;;7.75;3.95;;;6.70;83.90;;;;;;5035502;28;20079;-65
2024/02/27 00:58:11;;;;;;;8.35;3.58;;;6.70;83.90;;;;;;5025054;28;20029;-65
2024/02/27 01:00:37;;;;;;;6.10;3.03;;;6.70;83.80;;;;;;5031410;28;20362;-65
2024/02/27 01:03:03;;;;;;;6.90;4.00;;;6.70;83.90;;;;;;5027470;28;20038;-65
2024/02/27 01:05:30;;;;;;;9.18;4.53;;;6.60;83.90;;;;;;5028055;28;20052;-65
2024/02/27 01:07:55;;;;;;;8.63;4.28;;;6.60;83.90;;;;;;5025283;28;20029;-65
2024/02/27 01:10:21;;;;;;;6.45;3.50;;;6.60;84.10;;;;;;5029910;28;20117;-66
2024/02/27 01:12:47;;;;;;;5.70;3.15;;;6.60;84.10;;;;;;5034489;28;20040;-67
2024/02/27 01:15:13;;;;;;;8.65;3.65;;;6.60;84.10;;;;;;5030366;28;20034;-65
2024/02/27 01:17:39;;;;;;;8.20;3.92;;;6.60;84.00;;;;;;5027191;28;20030;-66
2024/02/27 01:20:06;;;;;;;13.35;4.35;;;6.60;84.00;;;;;;5025854;28;20033;-65
2024/02/27 01:22:35;;;;;;;10.40;4.18;;;6.60;84.10;;;;;;5030310;28;20083;-66
2024/02/27 01:25:01;;;;;;;5.20;3.25;;;6.60;84.10;;;;;;5030425;28;20041;-65
2024/02/27 01:27:29;;;;;;;6.75;3.72;;;6.70;84.10;;;;;;5030257;28;20484;-66
2024/02/27 01:29:56;;;;;;;5.50;3.53;;;6.70;84.00;;;;;;5029008;28;20057;-68
2024/02/27 01:32:22;;;;;;;7.07;3.38;;;6.60;84.00;;;;;;5058787;28;20025;-68
2024/02/27 01:34:48;;;;;;;6.40;3.53;;;6.70;84.10;;;;;;5029085;28;20057;-68
2024/02/27 01:37:14;;;;;;;8.00;3.42;;;6.60;84.00;;;;;;5031216;28;20041;-68
2024/02/27 01:39:40;;;;;;;6.70;3.30;;;6.60;84.10;;;;;;5024876;28;20025;-68
2024/02/27 01:42:06;;;;;;;5.80;3.80;;;6.60;84.10;;;;;;5015346;28;20026;-68
2024/02/27 01:44:33;;;;;;;6.88;4.05;;;6.60;84.10;;;;;;5028757;28;20503;-68
2024/02/27 01:47:00;;;;;;;6.38;2.72;;;6.50;84.10;;;;;;5031941;28;20423;-68
2024/02/27 01:49:27;;;;;;;6.55;3.15;;;6.50;84.10;;;;;;5033799;28;20042;-68
2024/02/27 01:51:54;;;;;;;6.28;3.55;;;6.50;84.10;;;;;;5017821;28;20033;-68
2024/02/27 01:54:24;;;;;;;7.30;4.25;;;6.40;84.10;;;;;;5035578;28;20026;-68
2024/02/27 01:56:52;;;;;;;7.15;4.10;;;6.40;84.10;;;;;;5035417;28;20029;-68
2024/02/27 01:59:21;;;;;;;6.65;4.10;;;6.40;84.10;;;;;;5035307;28;20013;-68
2024/02/27 02:01:50;;;;;;;6.53;3.83;;;6.40;84.10;;;;;;5034132;28;20041;-68
2024/02/27 02:04:17;;;;;;;7.45;3.78;;;6.40;84.10;;;;;;5031935;28;20396;-66
2024/02/27 02:06:43;;;;;;;6.25;3.70;;;6.40;84.10;;;;;;5030031;28;20358;-68
2024/02/27 02:09:09;;;;;;;5.60;3.30;;;6.30;84.00;;;;;;5034937;28;20496;-69
2024/02/27 02:11:35;;;;;;;6.90;3.45;;;6.30;84.10;;;;;;5034413;28;20025;-68
2024/02/27 02:14:02;;;;;;;8.20;3.95;;;6.30;84.20;;;;;;5034572;28;20026;-68
2024/02/27 02:16:28;;;;;;;6.03;3.65;;;6.20;84.10;;;;;;5033923;28;20033;-68
2024/02/27 02:18:56;;;;;;;4.68;3.05;;;6.20;84.20;;;;;;5034542;28;20092;-68
2024/02/27 02:21:22;;;;;;;9.23;3.60;;;6.20;84.20;;;;;;5034498;28;20025;-68
2024/02/27 02:23:49;;;;;;;8.65;3.90;;;6.10;84.20;;;;;;5049860;28;20059;-68
2024/02/27 02:26:17;;;;;;;6.50;3.47;;;6.10;84.20;;;;;;5033150;28;20025;-68
2024/02/27 02:28:43;;;;;;;6.05;3.60;;;6.00;84.20;;;;;;5033529;28;20100;-68
2024/02/27 02:31:09;;;;;;;5.50;4.00;;;6.00;84.20;;;;;;5036426;28;20026;-67
2024/02/27 02:33:35;;;;;;;7.20;3.63;;;5.90;84.30;;;;;;5033366;28;20040;-69
2024/02/27 02:36:01;;;;;;;5.82;3.67;;;5.90;84.30;;;;;;5032859;28;20033;-66
2024/02/27 02:38:27;;;;;;;5.78;3.65;;;5.90;84.30;;;;;;5029744;28;20036;-66
2024/02/27 02:40:53;;;;;;;7.97;3.75;;;5.80;84.40;;;;;;5032899;28;20540;-66
2024/02/27 02:43:19;;;;;;;7.28;3.65;;;5.80;84.50;;;;;;5063767;28;20492;-68
2024/02/27 02:45:45;;;;;;;6.72;3.67;;;5.80;84.50;;;;;;5032888;28;20033;-68
2024/02/27 02:48:11;;;;;;;6.05;3.55;;;5.80;84.50;;;;;;5032777;28;20045;-68
2024/02/27 02:50:37;;;;;;;6.00;3.10;;;5.80;84.60;;;;;;5033692;28;20058;-68
2024/02/27 02:53:03;;;;;;;4.70;2.65;;;5.70;84.50;;;;;;5032739;28;20057;-68
2024/02/27 02:55:30;;;;;;;5.82;3.10;;;5.70;84.40;;;;;;5032680;28;20389;-65
2024/02/27 02:57:56;;;;;;;8.38;4.28;;;5.70;84.40;;;;;;5034266;28;20021;-65
2024/02/27 03:00:22;;;;;;;4.60;3.28;;;5.70;84.40;;;;;;5033189;28;20079;-68
2024/02/27 03:02:48;;;;;;;7.38;3.55;;;5.70;84.50;;;;;;5033460;28;20436;-68
2024/02/27 03:05:14;;;;;;;6.53;3.15;;;5.60;84.50;;;;;;5035235;28;20500;-68
2024/02/27 03:07:41;;;;;;;8.68;3.65;;;5.60;84.50;;;;;;5032575;28;20511;-68
2024/02/27 03:10:10;;;;;;;6.65;3.35;;;5.60;84.50;;;;;;5032965;28;20439;-68
2024/02/27 03:12:43;;;;;;;7.18;3.05;;;5.60;84.50;;;;;;5033888;28;20498;-68
2024/02/27 03:15:09;;;;;;;6.40;3.40;;;5.60;84.50;;;;;;5034654;28;20025;-68
2024/02/27 03:17:36;;;;;;;5.45;3.25;;;5.60;84.60;;;;;;5033496;28;20022;-68
2024/02/27 03:20:05;;;;;;;6.05;2.97;;;5.60;84.50;;;;;;5034898;28;20045;-68
2024/02/27 03:22:32;;;;;;;5.93;3.17;;;5.60;84.50;;;;;;5034561;28;20108;-68
2024/02/27 03:25:04;;;;;;;9.48;4.43;;;5.60;84.50;;;;;;5031602;28;20468;-68
2024/02/27 03:27:31;;;;;;;4.22;3.30;;;5.50;84.40;;;;;;5030776;28;20130;-65
2024/02/27 03:29:57;;;;;;;6.82;3.58;;;5.50;84.50;;;;;;5029199;28;20037;-65
2024/02/27 03:32:23;;;;;;;4.32;3.00;;;5.50;84.50;;;;;;5024604;28;20032;-65
2024/02/27 03:34:49;;;;;;;7.47;3.45;;;5.50;84.50;;;;;;5027077;28;20025;-65
2024/02/27 03:37:16;;;;;;;7.47;3.30;;;5.40;84.40;;;;;;5029373;28;20109;-68
2024/02/27 03:39:43;;;;;;;5.28;3.17;;;5.40;84.60;;;;;;5029282;28;20045;-65
2024/02/27 03:42:09;;;;;;;4.22;2.72;;;5.40;84.60;;;;;;5027207;28;20064;-68
2024/02/27 03:44:36;;;;;;;6.72;3.85;;;5.40;84.60;;;;;;5032709;28;20401;-67
2024/02/27 03:47:03;;;;;;;6.28;3.45;;;5.30;84.60;;;;;;5032795;28;20029;-68
2024/02/27 03:49:29;;;;;;;5.15;2.88;;;5.30;84.70;;;;;;5032659;28;20057;-68
2024/02/27 03:51:55;;;;;;;11.25;3.22;;;5.30;84.70;;;;;;5032340;28;20071;-68
2024/02/27 03:54:21;;;;;;;5.30;2.75;;;5.30;84.70;;;;;;5032792;28;20076;-68
2024/02/27 03:56:46;;;;;;;5.80;3.53;;;5.30;84.70;;;;;;5032353;28;20039;-68
2024/02/27 03:59:13;;;;;;;7.50;3.78;;;5.30;84.80;;;;;;5032799;28;20025;-68
2024/02/27 04:01:39;;;;;;;9.18;4.22;;;5.20;84.70;;;;;;5035703;28;20112;-68
2024/02/27 04:04:06;;;;;;;5.63;3.03;;;5.20;84.80;;;;;;5032511;28;20053;-68
2024/02/27 04:06:32;;;;;;;6.68;3.47;;;5.20;84.80;;;;;;5030341;28;20721;-65
2024/02/27 04:08:58;;;;;;;4.97;3.20;;;5.20;84.90;;;;;;5023831;28;20041;-66
2024/02/27 04:11:24;;;;;;;7.25;3.35;;;5.20;84.90;;;;;;5029158;28;20033;-66
2024/02/27 04:13:49;;;;;;;6.75;4.20;;;5.20;84.90;;;;;;5028769;28;20087;-66
2024/02/27 04:16:15;;;;;;;6.72;3.90;;;5.20;84.90;;;;;;5029103;28;20097;-66
2024/02/27 04:18:41;;;;;;;6.53;3.70;;;5.20;84.90;;;;;;5020452;28;20036;-65
2024/02/27 04:21:07;;;;;;;5.15;3.40;;;5.10;84.90;;;;;;5033124;28;20404;-65
2024/02/27 04:23:33;;;;;;;4.93;3.35;;;5.10;84.90;;;;;;5036753;28;20129;-68
2024/02/27 04:26:01;;;;;;;6.88;3.75;;;5.10;85.00;;;;;;5032110;28;20465;-68
2024/02/27 04:28:28;;;;;;;6.75;4.05;;;5.10;85.00;;;;;;5034939;28;20033;-68
2024/02/27 04:30:54;;;;;;;9.05;3.75;;;5.10;85.10;;;;;;5031136;28;20484;-68
2024/02/27 04:33:20;;;;;;;7.78;4.10;;;5.00;85.10;;;;;;5031720;28;20461;-68
2024/02/27 04:35:46;;;;;;;8.77;4.65;;;5.00;85.20;;;;;;5030525;28;20030;-65
2024/02/27 04:38:12;;;;;;;5.93;3.47;;;5.00;85.20;;;;;;5028535;28;20473;-65
2024/02/27 04:40:39;;;;;;;10.27;3.75;;;5.00;85.20;;;;;;5028549;28;20412;-65
2024/02/27 04:43:05;;;;;;;7.45;3.58;;;5.00;85.20;;;;;;5019726;28;20025;-65
2024/02/27 04:45:31;;;;;;;5.78;3.70;;;5.00;85.20;;;;;;5031428;28;20120;-68
2024/02/27 04:47:57;;;;;;;5.57;3.55;;;5.00;85.20;;;;;;5028321;28;20033;-67
2024/02/27 04:50:23;;;;;;;6.10;3.70;;;5.00;85.20;;;;;;5038138;28;20127;-65
2024/02/27 04:52:49;;;;;;;6.88;3.22;;;5.00;85.20;;;;;;5027123;28;20160;-68
2024/02/27 04:55:15;;;;;;;9.18;4.32;;;5.00;85.20;;;;;;5032918;28;20026;-67
2024/02/27 04:57:41;;;;;;;6.03;3.60;;;5.00;85.20;;;;;;5032043;28;20033;-68
2024/02/27 05:00:09;;;;;;;8.20;4.28;;;5.00;85.20;;;;;;5030525;28;20022;-68
2024/02/27 05:02:36;;;;;;;10.23;4.28;;;5.00;85.20;;;;;;5033513;28;20044;-68
2024/02/27 05:05:02;;;;;;;7.13;4.15;;;5.00;85.30;;;;;;5031622;28;20030;-68
2024/02/27 05:07:28;;;;;;;8.18;3.88;;;4.90;85.30;;;;;;5035238;28;20041;-66
2024/02/27 05:09:54;;;;;;;7.28;4.05;;;4.90;85.40;;;;;;5034004;28;20504;-66
2024/02/27 05:12:20;;;;;;;7.25;3.78;;;4.90;85.40;;;;;;5034139;28;20083;-65
2024/02/27 05:14:47;;;;;;;6.72;4.00;;;4.90;85.40;;;;;;5036823;28;20021;-65
2024/02/27 05:17:12;;;;;;;7.82;4.40;;;5.00;85.40;;;;;;5036095;28;20405;-65
2024/02/27 05:19:38;;;;;;;6.90;4.03;;;5.00;85.50;;;;;;5028926;28;20039;-65
2024/02/27 05:22:04;;;;;;;11.20;4.95;;;5.00;85.40;;;;;;5024325;28;20068;-65
2024/02/27 05:24:30;;;;;;;5.82;3.97;;;5.00;85.40;;;;;;5033538;28;20033;-65
2024/02/27 05:26:56;;;;;;;9.32;4.57;;;4.90;85.50;;;;;;5026655;28;20437;-65
2024/02/27 05:29:23;;;;;;;5.18;3.85;;;5.00;85.60;;;;;;5033274;28;20068;-67
2024/02/27 05:31:49;;;;;;;7.72;4.15;;;4.90;85.40;;;;;;5035834;28;20030;-68
2024/02/27 05:34:15;;;;;;;7.10;3.97;;;5.00;85.50;;;;;;5035212;28;20044;-67
2024/02/27 05:36:41;;;;;;;7.10;4.57;;;5.00;85.40;;;;;;5034014;28;20022;-67
2024/02/27 05:39:08;;;;;;;6.40;3.50;;;5.00;85.40;;;;;;5033579;28;20430;-68
2024/02/27 05:41:34;;;;;;;6.45;3.85;;;5.00;85.40;;;;;;5033946;28;20029;-68
2024/02/27 05:44:00;;;;;;;6.85;4.38;;;5.00;85.50;;;;;;5034611;28;20033;-67
2024/02/27 05:46:26;;;;;;;5.45;3.38;;;5.00;85.50;;;;;;5033744;28;20139;-65
2024/02/27 05:48:52;;;;;;;7.28;4.28;;;4.90;85.50;;;;;;5030899;28;20042;-65
2024/02/27 05:51:20;;;;;;;7.10;3.63;;;4.90;85.60;;;;;;5032442;28;20458;-65
2024/02/27 05:53:47;;;;;;;8.27;4.88;;;4.90;85.70;;;;;;5030379;28;20045;-65
2024/02/27 05:56:13;;;;;;;8.05;4.18;;;4.90;85.60;;;;;;5034445;28;20025;-67
2024/02/27 05:58:39;;;;;;;7.75;3.72;;;4.90;85.70;;;;;;5023700;28;20029;-68
2024/02/27 06:01:05;;;;;;;7.03;4.35;;;4.90;85.70;;;;;;5035211;28;20384;-68
2024/02/27 06:03:31;;;;;;;7.50;3.83;;;4.90;85.60;;;;;;5033691;28;20436;-68
2024/02/27 06:05:57;;;;;;;7.70;4.40;;;4.90;85.70;;;;;;5035366;28;20026;-68
2024/02/27 06:08:24;;;;;;;10.50;4.32;;;4.90;85.80;;;;;;5015102;28;20473;-65
2024/02/27 06:10:50;;;;;;;7.15;3.38;;;4.90;85.90;;;;;;5031605;28;20033;-64
2024/02/27 06:13:16;;;;;;;8.68;4.57;;;4.90;85.90;;;;;;5032723;28;20033;-68
2024/02/27 06:15:44;;;;;;;6.75;3.83;;;4.90;86.00;;;;;;5033828;28;20056;-68
2024/02/27 06:18:15;;;;;;;6.32;3.72;;;4.90;86.00;;;;;;5017654;28;20025;-68
2024/02/27 06:23:31;;;;;;;11.35;5.15;;;4.90;86.10;;;;;;5032588;28;20048;-65
2024/02/27 06:25:57;;;;;;;5.72;3.45;;;4.90;86.10;;;;;;5032010;28;20057;-64
2024/02/27 06:28:23;;;;;;;5.85;3.72;;;4.90;86.10;;;;;;5036994;28;20081;-68
2024/02/27 06:30:49;;;;;;;6.30;3.25;;;4.90;86.10;;;;;;5033348;28;20416;-65
2024/02/27 06:33:15;;;;;;;4.85;3.25;;;4.90;86.20;;;;;;5025834;28;20030;-65
2024/02/27 06:35:41;;;;;;;9.07;4.60;;;4.90;86.10;;;;;;5062179;28;20029;-64
2024/02/27 06:38:07;;;;;;;8.25;4.20;;;4.90;86.10;;;;;;5029912;28;20080;-67
2024/02/27 06:40:32;;;;;;;8.85;4.35;;;4.90;86.00;;;;;;5037173;28;20033;-66
2024/02/27 06:42:58;;;;;;;7.28;4.25;;;4.90;86.10;;;;;;5032760;28;20049;-64
2024/02/27 06:45:24;;;;;;;9.18;3.92;;;4.90;86.00;;;;;;5032865;28;20499;-67
2024/02/27 06:47:49;;;;;;;5.40;3.65;;;4.90;86.00;;;;;;5033215;28;20346;-64
2024/02/27 06:50:17;;;;;;;5.97;4.13;;;4.90;86.00;;;;;;5026019;28;20029;-64
2024/02/27 06:52:43;;;;;;;9.70;4.35;;;4.90;86.00;;;;;;5032393;28;20049;-67
2024/02/27 06:55:09;;;;;;;8.00;3.33;;;4.90;86.00;;;;;;5039055;28;20087;-67
2024/02/27 06:57:34;;;;;;;6.93;3.22;;;4.90;86.10;;;;;;5031775;28;20473;-64
2024/02/27 07:00:00;;;;;;;6.68;4.30;;;4.90;86.20;;;;;;5033146;28;20049;-64
2024/02/27 07:02:27;;;;;;;7.10;3.78;;;5.00;86.20;;;;;;5022606;28;20030;-64
2024/02/27 07:04:53;;;;;;;10.00;3.58;;;5.00;86.20;;;;;;5021620;28;20061;-66
2024/02/27 07:07:21;;;;;;;6.63;3.95;;;5.10;86.20;;;;;;5031094;28;20600;-64
2024/02/27 07:09:47;;;;;;;5.43;3.53;;;5.10;86.20;;;;;;5033251;28;20033;-64
2024/02/27 07:12:13;;;;;;;6.22;4.20;;;5.10;86.20;;;;;;5026245;28;20232;-67
2024/02/27 07:14:42;;;;;;;7.80;4.07;;;5.10;86.20;;;;;;5034090;28;20025;-67
2024/02/27 07:17:09;;;;;;;8.75;4.05;;;5.20;86.10;;;;;;5028205;28;20026;-68
2024/02/27 07:19:35;;;;;;;9.10;3.95;;;5.20;86.10;;;;;;5032677;28;20061;-69
2024/02/27 07:22:02;;;;;;;8.93;4.53;;;5.20;86.00;;;;;;5028391;28;20533;-63
2024/02/27 07:24:28;;;;;;;5.95;3.70;;;5.20;86.00;;;;;;5030673;28;20389;-67
2024/02/27 07:26:56;;;;;;;6.65;3.92;;;5.20;86.00;;;;;;5023880;28;20037;-65
2024/02/27 07:29:22;;;;;;;3.85;3.03;;;5.30;86.00;;;;;;5028000;28;20497;-72
2024/02/27 07:31:48;;;;;;;7.75;3.92;;;5.30;86.10;;;;;;5031508;28;20026;-68
2024/02/27 07:34:16;;;;;;;7.40;4.28;;;5.30;86.00;;;;;;5024094;28;20080;-67
2024/02/27 07:36:43;;;;;;;7.47;3.88;;;5.30;86.00;;;;;;5055708;28;20026;-65
2024/02/27 07:39:10;;;;;;;6.65;4.07;;;5.30;86.00;;;;;;5030352;28;20044;-69
2024/02/27 07:41:37;;;;;;;7.90;4.05;;;5.30;86.00;;;;;;5013348;28;20091;-67
2024/02/27 07:44:02;;;;;;;6.60;3.47;;;5.30;86.10;;;;;;5034005;28;20033;-67
2024/02/27 07:46:28;;;;;;;4.78;2.83;;;5.30;86.00;;;;;;5024738;28;20029;-67
2024/02/27 07:48:54;;;;;;;6.05;3.10;;;5.40;86.10;;;;;;5037948;28;20040;-67
2024/02/27 07:51:30;;;;;;;6.03;3.70;;;5.40;86.00;;;;;;5028925;28;20046;-72
2024/02/27 07:53:56;;;;;;;8.90;4.40;;;5.40;86.00;;;;;;5012959;28;20524;-72
2024/02/27 07:56:22;;;;;;;4.72;2.97;;;5.50;85.90;;;;;;5013432;28;20076;-65
2024/02/27 07:58:48;;;;;;;5.32;3.95;;;5.60;85.80;;;;;;5024433;28;20055;-71
2024/02/27 08:01:15;;;;;;;5.63;4.13;;;5.60;85.70;;;;;;5030511;28;20132;-64
2024/02/27 08:03:41;;;;;;;7.45;4.32;;;5.70;85.60;;;;;;5034708;28;20029;-68
2024/02/27 08:06:07;;;;;;;9.25;3.70;;;5.80;85.60;;;;;;5030751;28;20377;-64
2024/02/27 08:08:32;;;;;;;7.47;4.47;;;5.80;85.50;;;;;;5026637;28;20022;-64
2024/02/27 08:10:58;;;;;;;8.10;4.05;;;5.80;85.30;;;;;;5023974;28;20033;-63
2024/02/27 08:13:25;;;;;;;11.10;4.10;;;5.90;85.90;;;;;;5032458;28;20540;-68
2024/02/27 08:15:51;;;;;;;5.22;3.08;;;5.90;85.30;;;;;;5032594;28;20075;-68
2024/02/27 08:18:17;;;;;;;5.60;3.63;;;5.90;85.30;;;;;;5030537;28;20025;-64
2024/02/27 08:20:44;;;;;;;4.93;3.65;;;6.00;85.30;;;;;;5031910;28;20369;-65
2024/02/27 08:23:10;;;;;;;6.85;3.65;;;6.00;85.20;;;;;;5031245;28;20115;-66
2024/02/27 08:25:39;;;;;;;5.40;3.25;;;6.10;85.20;;;;;;5017864;28;20508;-67
2024/02/27 08:28:06;;;;;;;7.28;4.03;;;6.20;85.00;;;;;;5022831;28;20026;-64
2024/02/27 08:30:32;;;;;;;9.40;3.50;;;6.20;84.70;;;;;;5051486;28;20112;-65
2024/02/27 08:33:01;;;;;;;5.18;3.25;;;6.20;84.70;;;;;;5015632;28;20032;-64
2024/02/27 08:35:26;;;;;;;8.55;3.83;;;6.20;84.90;;;;;;5013297;28;20095;-64
2024/02/27 08:37:53;;;;;;;7.15;4.30;;;6.20;84.90;;;;;;5031277;28;20480;-64
2024/02/27 08:40:19;;;;;;;5.80;3.60;;;6.30;84.80;;;;;;5020229;28;20056;-64
2024/02/27 08:42:44;;;;;;;4.78;2.72;;;6.40;84.60;;;;;;5017522;28;20026;-65
2024/02/27 08:45:10;;;;;;;6.05;3.33;;;6.40;84.40;;;;;;5021203;28;20167;-67
2024/02/27 08:47:36;;;;;;;11.02;5.03;;;6.30;84.40;;;;;;5032829;28;20032;-67
2024/02/27 08:50:04;;;;;;;7.65;3.90;;;6.30;84.60;;;;;;5032134;28;20538;-64
2024/02/27 08:52:30;;;;;;;5.30;3.90;;;6.30;84.80;;;;;;5033298;28;20021;-64
2024/02/27 08:54:56;;;;;;;6.63;3.10;;;6.40;84.80;;;;;;5032470;28;20033;-64
2024/02/27 08:57:22;;;;;;;7.70;3.70;;;6.40;84.50;;;;;;5028682;28;20037;-64
2024/02/27 08:59:48;;;;;;;10.40;3.08;;;6.40;84.50;;;;;;5028221;28;20041;-64
2024/02/27 09:02:14;;;;;;;7.95;4.13;;;6.40;84.60;;;;;;5030001;28;20500;-67
2024/02/27 09:04:40;;;;;;;7.03;3.78;;;6.30;84.50;;;;;;5029876;28;20145;-67
2024/02/27 09:07:06;;;;;;;7.78;4.10;;;6.40;84.70;;;;;;5031704;28;20138;-67
2024/02/27 09:09:31;;;;;;;8.10;3.67;;;6.40;84.60;;;;;;5031494;28;20045;-68
2024/02/27 09:11:57;;;;;;;6.35;3.10;;;6.40;84.50;;;;;;5030248;28;20029;-68
2024/02/27 09:14:23;;;;;;;8.10;4.18;;;6.40;84.60;;;;;;5033851;28;20041;-68
2024/02/27 09:16:49;;;;;;;6.57;3.80;;;6.50;84.60;;;;;;5033345;28;20489;-68
2024/02/27 09:19:14;;;;;;;5.68;2.83;;;6.50;84.60;;;;;;5029169;28;20025;-68
2024/02/27 09:21:43;;;;;;;5.68;3.15;;;6.60;84.50;;;;;;5029399;28;20021;-68
2024/02/27 09:24:09;;;;;;;4.07;3.15;;;6.70;84.50;;;;;;5033101;28;20028;-68
2024/02/27 09:26:35;;;;;;;6.95;3.70;;;6.70;84.40;;;;;;5035062;28;20022;-68
2024/02/27 09:29:02;;;;;;;8.55;4.28;;;6.80;84.30;;;;;;5030467;28;20384;-68
2024/02/27 09:31:28;;;;;;;7.90;3.03;;;6.80;84.20;;;;;;5030738;28;20017;-68
2024/02/27 09:33:54;;;;;;;5.80;3.78;;;6.90;84.10;;;;;;5030399;28;20032;-67
2024/02/27 09:36:19;;;;;;;9.05;3.53;;;6.90;84.10;;;;;;5030327;28;20021;-68
2024/02/27 09:38:45;;;;;;;9.02;3.78;;;7.00;84.10;;;;;;5026377;28;20026;-68
2024/02/27 09:41:26;;;;;;;6.80;3.70;;;7.00;84.10;;;;;;5025893;28;20110;-64
2024/02/27 09:43:55;;;;;;;8.25;3.95;;;7.10;84.00;;;;;;5056414;28;20021;-64
2024/02/27 09:46:23;;;;;;;6.13;4.20;;;7.20;83.90;;;;;;5025593;28;20033;-65
2024/02/27 09:48:51;;;;;;;5.82;3.05;;;7.30;83.90;;;;;;4978004;28;1201440;-64
2024/02/27 09:51:20;;;;;;;5.35;2.95;;;7.30;83.60;;;;;;5021096;28;20036;-64
2024/02/27 09:53:48;;;;;;;7.82;3.75;;;7.30;83.50;;;;;;5024876;28;20055;-64
2024/02/27 09:56:15;;;;;;;7.82;3.85;;;7.40;83.50;;;;;;5022359;28;20088;-64
2024/02/27 09:58:44;;;;;;;5.53;2.83;;;7.50;83.40;;;;;;5021072;28;20021;-64
2024/02/27 10:01:15;;;;;;;6.60;3.60;;;7.50;83.30;;;;;;5025781;28;20082;-64
2024/02/27 10:03:46;;;;;;;6.35;3.50;;;7.50;83.40;;;;;;5027899;28;20061;-64
2024/02/27 10:06:14;;;;;;;6.82;3.42;;;7.60;83.40;;;;;;5028580;28;20042;-64
2024/02/27 10:08:46;;;;;;;4.07;2.65;;;7.60;83.30;;;;;;5034509;28;20400;-64
2024/02/27 10:11:13;;;;;;;6.70;2.73;;;7.70;83.20;;;;;;5027547;28;20026;-64
2024/02/27 10:13:38;;;;;;;5.60;3.08;;;7.80;83.20;;;;;;5025829;28;20029;-64
2024/02/27 10:16:05;;;;;;;4.07;2.55;;;8.00;83.00;;;;;;5031618;28;20032;-65
2024/02/27 10:18:31;;;;;;;5.43;2.97;;;8.20;82.90;;;;;;5028721;28;20117;-64
2024/02/27 10:20:57;;;;;;;5.43;3.13;;;8.40;82.70;;;;;;5034648;28;20365;-64
2024/02/27 10:23:23;;;;;;;5.18;3.13;;;8.60;82.10;;;;;;5022198;28;20041;-64
2024/02/27 10:25:50;;;;;;;5.25;2.90;;;8.70;81.80;;;;;;5023865;28;20040;-64
2024/02/27 10:28:18;;;;;;;4.60;2.85;;;8.70;81.50;;;;;;5021827;28;20036;-64
2024/02/27 10:30:44;;;;;;;5.22;3.72;;;8.70;81.60;;;;;;5028130;28;20044;-64
2024/02/27 10:33:13;;;;;;;5.05;3.33;;;8.70;81.80;;;;;;5034630;28;20022;-68
2024/02/27 10:35:42;;;;;;;5.35;2.63;;;8.90;81.70;;;;;;5032827;28;20113;-72
2024/02/27 10:39:09;;;;;;;6.22;3.70;;;9.00;81.20;;;;;;5030917;28;20111;-73
2024/02/27 10:42:15;;;;;;;5.00;3.05;;;9.00;81.10;;;;;;4992902;28;20045;-72
2024/02/27 10:44:48;;;;;;;5.43;3.25;;;9.00;81.00;;;;;;5033573;28;20073;-72
2024/02/27 10:47:22;;;;;;;8.20;3.38;;;8.90;80.70;;;;;;5034187;28;20477;-72
2024/02/27 10:49:48;;;;;;;7.07;3.67;;;8.90;80.70;;;;;;5030570;28;20535;-69
2024/02/27 10:52:29;;;;;;;;;;;;;;;;;;;;;
2024/02/27 10:55:05;;;;;;;9.90;4.00;;;8.90;80.70;;;;;;5023704;28;20489;-69
2024/02/27 10:57:33;;;;;;;4.28;2.38;;;8.90;80.30;;;;;;5024892;28;20846;-69
2024/02/27 10:59:59;;;;;;;7.90;3.05;;;8.90;80.40;;;;;;5043128;28;20025;-69
2024/02/27 11:02:27;;;;;;;10.32;3.72;;;8.90;80.40;;;;;;5027662;28;20068;-69
2024/02/27 11:04:55;;;;;;;6.30;3.00;;;8.90;80.30;;;;;;5031744;28;20112;-69
2024/02/27 11:07:21;;;;;;;6.72;3.85;;;8.90;80.30;;;;;;5032011;28;20136;-69
2024/02/27 11:09:50;;;;;;;3.95;2.22;;;8.90;80.20;;;;;;5022832;28;20025;-69
2024/02/27 11:12:16;;;;;;;6.20;3.70;;;9.00;80.30;;;;;;5016870;28;20029;-69
2024/02/27 11:14:48;;;;;;;4.93;2.92;;;9.00;80.20;;;;;;5032171;28;20030;-71
2024/02/27 11:17:21;;;;;;;;;;;9.00;80.00;;;;;;5031586;28;20025;-69
2024/02/27 11:19:51;;;;;;;;;;;8.90;80.10;;;;;;5026407;28;19916;-68
2024/02/27 11:22:19;;;;;;;7.28;3.75;;;8.90;80.10;;;;;;5033060;28;19909;-64
2024/02/27 11:24:51;;;;;;;6.35;3.08;;;8.90;80.10;;;;;;5035811;28;20045;-67
2024/02/27 11:27:26;;;;;;;4.65;2.97;;;8.90;80.10;;;;;;5032643;28;20397;-67
2024/02/27 11:29:53;;;;;;;4.50;2.50;;;9.00;80.20;;;;;;5030105;28;20034;-64
2024/02/27 11:32:20;;;;;;;3.95;2.42;;;9.00;80.10;;;;;;5037076;28;20029;-67
2024/02/27 11:34:49;;;;;;;7.88;2.88;;;9.00;80.10;;;;;;5034642;28;20037;-64
2024/02/27 11:37:16;;;;;;;5.00;3.17;;;9.20;80.50;;;;;;5031735;28;20051;-64
2024/02/27 11:39:43;;;;;;;6.88;3.42;;;9.60;80.20;;;;;;5030153;28;20041;-64
2024/02/27 11:42:42;;;;;;;5.32;3.20;;;10.00;79.20;;;;;;5034945;28;20508;-67
2024/02/27 11:45:08;;;;;;;7.68;3.28;;;10.30;78.20;;;;;;5040021;28;20268;-67
2024/02/27 11:47:51;;;;;;;8.23;3.55;;;10.40;77.90;;;;;;5033533;28;20069;-64
2024/02/27 11:50:34;;;;;;;3.78;2.55;;;10.40;77.40;;;;;;5034634;28;20037;-64
2024/02/27 11:53:24;;;;;;;4.25;2.70;;;10.30;77.40;;;;;;5032153;28;20029;-65
2024/02/27 11:55:51;;;;;;;5.82;2.95;;;10.30;77.30;;;;;;5029087;28;20021;-64
2024/02/27 11:58:18;;;;;;;5.90;3.65;;;10.20;76.90;;;;;;5037003;28;20109;-64
2024/02/27 12:00:47;;;;;;;5.63;3.72;;;10.20;76.90;;;;;;5028691;28;20534;-64
2024/02/27 12:03:12;;;;;;;8.38;3.25;;;10.40;77.10;;;;;;5031056;28;20038;-64
2024/02/27 12:05:39;;;;;;;6.13;2.92;;;10.70;76.50;;;;;;5032450;28;20056;-67
2024/02/27 12:08:05;;;;;;;5.28;2.50;;;11.00;76.20;;;;;;5038159;28;20038;-67
2024/02/27 12:10:31;;;;;;;5.10;2.92;;;11.30;75.70;;;;;;5035067;28;20108;-67
2024/02/27 12:12:57;;;;;;;5.82;2.72;;;11.50;75.10;;;;;;5043582;28;20025;-67
2024/02/27 12:15:23;;;;;;;4.78;2.95;;;11.80;74.80;;;;;;5035033;28;20025;-68
2024/02/27 12:17:49;;;;;;;6.93;3.30;;;12.10;73.90;;;;;;5032177;28;20029;-68
2024/02/27 12:20:15;;;;;;;5.68;3.00;;;12.50;73.40;;;;;;5042639;28;20021;-67
2024/02/27 12:22:45;;;;;;;5.10;3.60;;;12.80;72.70;;;;;;5038812;28;20481;-67
2024/02/27 12:25:11;;;;;;;5.60;3.60;;;13.00;72.00;;;;;;5032009;28;20029;-64
2024/02/27 12:27:38;;;;;;;5.88;2.97;;;13.20;71.70;;;;;;5027330;28;20069;-64
2024/02/27 12:30:10;;;;;;;4.97;2.70;;;13.30;70.90;;;;;;5028324;28;20510;-64
2024/02/27 12:32:45;;;;;;;4.43;2.72;;;13.40;70.30;;;;;;5027902;28;20053;-64
2024/02/27 12:35:13;;;;;;;5.18;3.17;;;13.30;70.20;;;;;;5030761;28;20029;-64
2024/02/27 12:37:47;;;;;;;5.30;2.95;;;13.40;69.50;;;;;;5033695;28;20029;-64
2024/02/27 12:40:19;;;;;;;5.45;2.83;;;13.40;69.00;;;;;;5029173;28;20029;-64
2024/02/27 12:42:47;;;;;;;5.88;3.47;;;13.50;68.90;;;;;;5030910;28;20033;-64
2024/02/27 12:45:15;;;;;;;6.93;3.28;;;13.50;68.70;;;;;;5031688;28;20057;-64
2024/02/27 12:47:42;;;;;;;4.80;3.47;;;13.60;68.40;;;;;;5027276;28;20443;-65
2024/02/27 12:50:10;;;;;;;6.00;3.08;;;13.70;68.40;;;;;;5040082;28;20045;-64
2024/02/27 12:52:36;;;;;;;8.15;3.58;;;13.80;68.20;;;;;;5038021;28;20520;-64
2024/02/27 12:55:04;;;;;;;5.47;3.15;;;13.90;68.10;;;;;;5028775;28;20107;-64
2024/02/27 12:57:30;;;;;;;7.47;4.22;;;13.90;67.30;;;;;;5028398;28;20052;-64
2024/02/27 12:59:56;;;;;;;6.05;3.15;;;14.00;67.40;;;;;;5034169;28;20025;-65
2024/02/27 13:02:25;;;;;;;5.22;3.17;;;14.10;67.30;;;;;;5032018;28;20029;-64